Time;durP1;ratioP1;P1;durP2;ratioP2;P2;SDS_P1;SDS_P2;PMS_P1;PMS_P2;Temp;Humidity;BMP_temperature;BMP_pressure;BME280_temperature;BME280_humidity;BME280_pressure;Samples;Min_cycle;Max_cycle;Signal;HPM_P1;HPM_P2
2022/06/07 00:02:09;;;;;;;0.50;0.50;;;;;;;20.51;50.56;101480.03;5030940;28;20045;-83
2022/06/07 00:04:38;;;;;;;1.00;0.50;;;;;;;20.60;48.72;101481.81;5031906;28;20056;-87
2022/06/07 00:07:07;;;;;;;0.70;0.50;;;;;;;20.64;48.54;101473.94;5030037;28;20519;-84
2022/06/07 00:09:36;;;;;;;0.75;0.40;;;;;;;20.69;48.65;101484.44;5021753;28;20491;-82
2022/06/07 00:12:06;;;;;;;1.20;0.50;;;;;;;20.70;48.99;101473.91;5030770;28;20050;-81
2022/06/07 00:14:35;;;;;;;1.95;0.63;;;;;;;20.74;48.88;101471.28;5026596;28;20054;-83
2022/06/07 00:17:05;;;;;;;2.35;0.52;;;;;;;20.75;47.98;101467.75;5027042;28;20038;-84
2022/06/07 00:19:35;;;;;;;1.63;0.55;;;;;;;20.76;48.88;101469.53;5019519;28;20038;-85
2022/06/07 00:22:04;;;;;;;1.50;0.50;;;;;;;20.75;51.64;101467.75;5029776;28;20415;-84
2022/06/07 00:24:33;;;;;;;0.60;0.50;;;;;;;20.73;53.06;101459.91;5030281;28;20518;-83
2022/06/07 00:27:02;;;;;;;0.90;0.55;;;;;;;20.61;50.82;101459.88;5029288;28;20053;-84
2022/06/07 00:29:31;;;;;;;0.47;0.40;;;;;;;20.49;49.07;101458.13;5025122;28;20060;-84
2022/06/07 00:32:01;;;;;;;0.90;0.47;;;;;;;20.43;50.69;101460.72;5028618;28;20049;-85
2022/06/07 00:34:36;;;;;;;0.35;0.30;;;;;;;20.40;51.13;101458.13;5026617;28;20063;-84
2022/06/07 00:37:06;;;;;;;2.08;0.70;;;;;;;20.38;48.30;101459.88;5027812;28;20455;-84
2022/06/07 00:39:35;;;;;;;1.17;0.57;;;;;;;20.35;48.54;101457.25;5027181;28;20049;-85
2022/06/07 00:42:04;;;;;;;5.13;0.63;;;;;;;20.30;45.85;101460.75;5030107;28;20051;-83
2022/06/07 00:44:38;;;;;;;1.33;0.63;;;;;;;20.24;46.52;101455.47;5027979;28;20064;-82
2022/06/07 00:47:11;;;;;;;0.75;0.45;;;;;;;20.22;48.04;101456.34;5029984;28;20919;-81
2022/06/07 00:49:46;;;;;;;0.52;0.38;;;;;;;20.14;50.18;101447.59;5025597;28;20503;-83
2022/06/07 00:52:17;;;;;;;0.80;0.47;;;;;;;20.20;45.72;101459.00;5026840;28;20092;-84
2022/06/07 00:54:46;;;;;;;5.25;0.70;;;;;;;20.18;48.69;101465.09;5021103;28;20068;-80
2022/06/07 00:57:14;;;;;;;2.33;0.52;;;;;;;20.17;46.64;101456.34;5025075;28;20041;-79
2022/06/07 00:59:43;;;;;;;2.90;0.60;;;;;;;20.18;51.11;101452.88;5023671;28;20046;-80
2022/06/07 01:02:12;;;;;;;0.75;0.65;;;;;;;20.16;52.13;101454.59;5023430;28;20111;-80
2022/06/07 01:04:41;;;;;;;0.75;0.40;;;;;;;20.14;52.46;101455.47;5017018;28;20111;-80
2022/06/07 01:12:42;;;;;;;3.25;0.50;;;;;;;20.19;48.83;101446.72;5016407;28;20064;-86
2022/06/07 01:15:12;;;;;;;1.50;0.60;;;;;;;20.23;47.98;101451.09;5027602;28;20518;-85
2022/06/07 01:17:40;;;;;;;1.92;0.50;;;;;;;20.31;50.13;101445.84;5019892;28;20053;-86
2022/06/07 01:20:10;;;;;;;0.98;0.70;;;;;;;20.30;47.93;101444.97;5030291;28;20049;-87
2022/06/07 01:22:41;;;;;;;1.23;0.70;;;;;;;20.30;48.40;101444.97;5016262;28;20511;-88
2022/06/07 01:25:10;;;;;;;3.03;0.70;;;;;;;20.32;48.82;101444.97;5026193;28;20519;-90
2022/06/07 01:27:39;;;;;;;1.17;0.60;;;;;;;20.33;48.32;101437.97;5015612;28;20042;-87
2022/06/07 01:30:09;;;;;;;0.93;0.65;;;;;;;20.32;48.50;101442.34;5017244;28;20053;-87
2022/06/07 01:32:38;;;;;;;1.58;0.50;;;;;;;20.32;48.78;101444.09;5019605;28;20045;-84
2022/06/07 01:35:08;;;;;;;0.82;0.47;;;;;;;20.26;48.02;101453.72;5027581;28;20423;-84
2022/06/07 01:37:36;;;;;;;0.88;0.50;;;;;;;20.23;48.60;101450.25;5020988;28;20417;-81
2022/06/07 01:42:53;;;;;;;1.17;0.40;;;;;;;20.13;47.92;101451.09;5027887;28;20106;-83
2022/06/07 01:45:22;;;;;;;1.98;0.50;;;;;;;20.07;47.14;101441.47;5022470;28;20045;-84
2022/06/07 01:47:50;;;;;;;0.70;0.60;;;;;;;20.05;48.75;101443.22;5018822;28;20522;-87
2022/06/07 01:50:19;;;;;;;0.60;0.50;;;;;;;20.05;48.72;101451.09;5022832;28;20041;-86
2022/06/07 01:52:47;;;;;;;0.80;0.50;;;;;;;20.02;47.00;101440.56;5028356;28;20041;-82
2022/06/07 01:55:18;;;;;;;2.22;0.45;;;;;;;19.98;47.60;101441.44;5033034;28;20041;-85
2022/06/07 01:57:47;;;;;;;0.52;0.40;;;;;;;19.94;45.43;101439.69;5030165;28;20038;-85
2022/06/07 02:00:17;;;;;;;1.40;0.30;;;;;;;19.91;48.24;101439.69;5022512;28;20038;-85
2022/06/07 02:02:46;;;;;;;1.10;0.30;;;;;;;19.87;48.20;101442.28;5028122;28;20041;-84
2022/06/07 02:05:15;;;;;;;0.60;0.40;;;;;;;19.84;49.40;101438.78;5022905;28;20050;-85
2022/06/07 02:07:43;;;;;;;1.17;0.40;;;;;;;19.80;50.46;101435.28;5031352;28;20057;-82
2022/06/07 02:10:12;;;;;;;1.38;0.40;;;;;;;19.77;47.87;101426.50;5029164;28;20045;-83
2022/06/07 02:12:42;;;;;;;0.80;0.60;;;;;;;19.72;46.43;101429.13;5034556;28;20049;-86
2022/06/07 02:15:12;;;;;;;1.15;0.40;;;;;;;19.66;47.61;101423.84;5049088;28;20029;-83
2022/06/07 02:17:40;;;;;;;1.25;0.50;;;;;;;19.62;48.83;101427.31;5038287;28;20056;-83
2022/06/07 02:20:10;;;;;;;1.95;0.45;;;;;;;19.58;48.17;101425.53;5023563;28;20037;-84
2022/06/07 02:22:38;;;;;;;4.28;0.50;;;;;;;19.53;49.98;101422.03;5020014;28;20046;-84
2022/06/07 02:25:08;;;;;;;1.95;0.60;;;;;;;19.46;48.67;101422.00;5023576;28;20053;-83
2022/06/07 02:27:37;;;;;;;0.75;0.52;;;;;;;19.41;49.71;101422.88;5020109;28;20053;-85
2022/06/07 02:30:11;;;;;;;0.70;0.45;;;;;;;19.40;47.33;101423.72;5023603;28;20510;-85
2022/06/07 02:32:41;;;;;;;1.10;0.30;;;;;;;19.36;49.52;101425.50;5027214;28;20128;-84
2022/06/07 02:35:10;;;;;;;0.90;0.30;;;;;;;19.36;49.68;101416.75;5028600;28;20052;-84
2022/06/07 02:37:40;;;;;;;0.63;0.40;;;;;;;19.37;50.06;101410.63;5019805;28;20695;-85
2022/06/07 02:40:10;;;;;;;2.45;0.50;;;;;;;19.37;49.99;101418.47;5028703;28;20046;-84
2022/06/07 02:42:39;;;;;;;0.93;0.40;;;;;;;19.34;51.76;101427.22;5029689;28;20050;-84
2022/06/07 02:45:11;;;;;;;1.13;0.43;;;;;;;19.30;51.72;101420.19;5028683;28;20491;-85
2022/06/07 02:47:39;;;;;;;1.95;0.60;;;;;;;19.28;52.80;101414.06;5029491;28;20106;-86
2022/06/07 02:50:09;;;;;;;2.83;0.52;;;;;;;19.22;50.34;101411.44;5026338;28;20041;-84
2022/06/07 02:52:38;;;;;;;1.55;0.70;;;;;;;19.19;51.97;101409.66;5027967;28;20053;-86
2022/06/07 02:55:07;;;;;;;1.40;0.88;;;;;;;19.15;51.51;101409.63;5024817;28;20068;-86
2022/06/07 02:57:36;;;;;;;1.00;0.55;;;;;;;19.12;51.00;101409.63;5018231;28;20052;-86
2022/06/07 03:00:05;;;;;;;2.40;0.50;;;;;;;19.09;52.09;101414.88;5010066;28;20054;-86
2022/06/07 03:02:36;;;;;;;0.80;0.43;;;;;;;19.01;52.23;101407.84;5029151;28;20068;-88
2022/06/07 03:05:05;;;;;;;0.90;0.50;;;;;;;18.89;52.17;101393.78;5022551;28;20459;-85
2022/06/07 03:07:34;;;;;;;1.42;0.50;;;;;;;18.88;52.10;101403.41;5016004;28;20416;-86
2022/06/07 03:10:02;;;;;;;0.80;0.60;;;;;;;18.85;52.83;101411.22;5018473;28;20551;-87
2022/06/07 03:12:32;;;;;;;1.38;0.68;;;;;;;18.80;54.07;101397.22;5015185;28;20049;-88
2022/06/07 03:15:00;;;;;;;3.55;0.65;;;;;;;18.76;52.68;101403.28;5014027;28;20053;-87
2022/06/07 03:17:29;;;;;;;1.95;0.50;;;;;;;18.72;52.75;101396.28;5024070;28;20058;-88
2022/06/07 03:19:59;;;;;;;1.10;0.45;;;;;;;18.70;53.08;101400.63;5018304;28;20548;-87
2022/06/07 03:22:31;;;;;;;2.08;0.57;;;;;;;18.66;52.52;101399.72;5019277;28;20042;-88
2022/06/07 03:25:05;;;;;;;1.08;0.80;;;;;;;18.59;54.02;101390.94;5019946;28;20054;-87
2022/06/07 03:27:38;;;;;;;0.85;0.63;;;;;;;18.56;54.84;101396.19;5026541;28;20087;-87
2022/06/07 03:30:09;;;;;;;1.33;0.70;;;;;;;18.50;54.43;101388.25;5011805;28;20061;-85
2022/06/07 03:32:38;;;;;;;1.20;0.57;;;;;;;18.45;54.12;101395.22;5010231;28;20070;-86
2022/06/07 03:35:09;;;;;;;2.72;0.98;;;;;;;18.37;54.56;101391.66;5012736;28;20049;-85
2022/06/07 03:37:38;;;;;;;1.23;0.57;;;;;;;18.28;54.07;101386.34;5015053;28;20049;-86
2022/06/07 03:40:09;;;;;;;3.13;0.63;;;;;;;18.20;53.89;101386.28;5014545;28;20132;-89
2022/06/07 03:42:38;;;;;;;0.90;0.40;;;;;;;18.10;54.90;101385.34;5000963;28;20412;-86
2022/06/07 03:45:08;;;;;;;1.75;0.50;;;;;;;18.00;54.56;101380.88;5001873;28;20366;-87
2022/06/07 03:47:37;;;;;;;3.00;0.68;;;;;;;17.89;53.83;101387.75;4998474;28;20046;-86
2022/06/07 03:50:09;;;;;;;1.83;0.52;;;;;;;17.78;53.70;101387.63;5008730;28;20436;-85
2022/06/07 03:52:38;;;;;;;0.93;0.60;;;;;;;17.69;53.27;101380.56;5009801;28;20045;-86
2022/06/07 03:55:07;;;;;;;2.33;0.65;;;;;;;17.61;53.73;101379.59;5008720;28;20500;-86
2022/06/07 03:57:36;;;;;;;2.38;0.80;;;;;;;17.53;53.94;101379.53;5008004;28;20054;-88
2022/06/07 04:00:06;;;;;;;6.63;0.90;;;;;;;17.46;54.87;101376.84;5007243;28;20351;-89
2022/06/07 04:02:35;;;;;;;0.88;0.60;;;;;;;17.35;56.25;101379.31;5011087;28;20049;-87
2022/06/07 04:05:03;;;;;;;1.70;0.60;;;;;;;17.23;58.62;101380.06;5012908;28;20046;-89
2022/06/07 04:10:19;;;;;;;1.73;0.60;;;;;;;17.03;60.58;101365.84;5008057;28;20463;-90
2022/06/07 04:12:48;;;;;;;1.27;0.80;;;;;;;17.01;60.16;101384.13;5007212;28;20464;-89
2022/06/07 04:15:16;;;;;;;1.63;0.90;;;;;;;16.82;63.58;101383.00;5007635;28;20428;-88
2022/06/07 04:17:45;;;;;;;2.53;1.10;;;;;;;16.75;62.60;101386.38;5010908;28;20061;-89
2022/06/07 04:20:14;;;;;;;2.47;0.88;;;;;;;16.70;61.97;101388.03;5008330;28;20049;-89
2022/06/07 04:22:44;;;;;;;2.53;0.93;;;;;;;16.60;65.09;101386.13;4998360;28;20039;-90
2022/06/07 04:25:13;;;;;;;1.50;0.73;;;;;;;16.51;65.38;101392.97;5012392;28;20046;-90
2022/06/07 04:27:42;;;;;;;1.35;0.70;;;;;;;16.43;62.66;101396.34;4996814;28;20057;-89
2022/06/07 04:30:12;;;;;;;2.08;0.82;;;;;;;16.38;62.50;101392.75;4999526;28;20057;-87
2022/06/07 04:32:46;;;;;;;0.80;0.60;;;;;;;16.33;63.28;101385.75;4995815;28;20497;-90
2022/06/07 04:35:17;;;;;;;3.53;0.80;;;;;;;16.30;61.96;101392.63;5011351;28;20103;-88
2022/06/07 04:37:48;;;;;;;2.60;1.17;;;;;;;16.27;63.07;101392.59;4999267;28;20057;-87
2022/06/07 04:40:17;;;;;;;2.25;0.90;;;;;;;16.22;62.49;101404.72;5010791;28;20492;-90
2022/06/07 04:42:46;;;;;;;2.53;0.82;;;;;;;16.17;63.21;101407.25;5011745;28;20045;-90
2022/06/07 04:45:16;;;;;;;1.65;0.63;;;;;;;16.13;63.60;101411.50;5013028;28;20492;-90
2022/06/07 04:47:46;;;;;;;0.60;0.50;;;;;;;16.06;63.40;101409.66;5013998;28;20058;-88
2022/06/07 04:50:17;;;;;;;1.50;0.60;;;;;;;16.05;63.10;101415.72;5008455;28;20042;-90
2022/06/07 04:52:48;;;;;;;1.38;0.65;;;;;;;15.98;63.10;101410.38;5006985;28;20045;-89
2022/06/07 04:55:18;;;;;;;1.17;0.50;;;;;;;15.95;63.42;101405.97;5032894;28;20049;-89
2022/06/07 04:57:47;;;;;;;2.38;0.70;;;;;;;15.89;64.00;101411.06;5033647;28;20053;-89
2022/06/07 05:00:18;;;;;;;0.82;0.63;;;;;;;15.84;65.16;101408.38;5018922;28;20040;-88
2022/06/07 05:02:48;;;;;;;2.50;1.17;;;;;;;15.79;65.24;101409.16;5022684;28;20045;-88
2022/06/07 05:05:18;;;;;;;1.35;0.70;;;;;;;15.74;65.72;101411.69;5045671;28;20022;-89
2022/06/07 05:07:48;;;;;;;1.52;0.85;;;;;;;15.67;64.59;101405.44;5040433;28;20055;-90
2022/06/07 05:10:17;;;;;;;2.15;0.82;;;;;;;15.60;64.81;101403.56;5037568;28;20042;-89
2022/06/07 05:12:46;;;;;;;2.42;1.52;;;;;;;15.54;68.15;101408.66;5028303;28;20045;-86
2022/06/07 05:15:14;;;;;;;3.35;1.30;;;;;;;15.47;68.13;101418.09;5029650;28;20644;-88
2022/06/07 05:17:43;;;;;;;3.30;1.27;;;;;;;15.44;68.97;101411.94;5024559;28;20046;-88
2022/06/07 05:20:13;;;;;;;3.25;1.45;;;;;;;15.40;68.71;101415.34;5019417;28;20469;-88
2022/06/07 05:22:41;;;;;;;2.45;1.30;;;;;;;15.36;68.84;101413.50;5023988;28;20653;-88
2022/06/07 05:25:12;;;;;;;2.40;1.10;;;;;;;15.29;69.04;101413.38;5022980;28;20052;-86
2022/06/07 05:27:44;;;;;;;0.90;0.73;;;;;;;15.24;70.25;101408.91;5030806;28;20049;-88
2022/06/07 05:30:14;;;;;;;1.33;0.60;;;;;;;15.18;69.70;101404.44;5024044;28;20052;-86
2022/06/07 05:32:43;;;;;;;2.88;0.82;;;;;;;15.12;70.54;101403.44;5030710;28;20049;-86
2022/06/07 05:35:15;;;;;;;2.60;0.80;;;;;;;15.07;70.81;101405.94;5036695;28;20143;-88
2022/06/07 05:37:43;;;;;;;2.13;0.63;;;;;;;15.01;71.05;101396.28;5029713;28;20049;-81
2022/06/07 05:40:14;;;;;;;1.27;0.77;;;;;;;14.97;71.24;101406.59;5023018;28;20045;-81
2022/06/07 05:42:42;;;;;;;2.10;0.98;;;;;;;14.92;72.13;101405.63;5022835;28;20049;-79
2022/06/07 05:45:12;;;;;;;2.15;0.60;;;;;;;14.86;70.36;101395.94;5025019;28;20062;-79
2022/06/07 05:47:41;;;;;;;1.67;0.80;;;;;;;14.83;71.48;101401.97;5014992;28;20141;-78
2022/06/07 05:50:10;;;;;;;2.03;1.05;;;;;;;14.80;71.96;101406.25;5023992;28;20046;-78
2022/06/07 05:52:40;;;;;;;2.08;0.60;;;;;;;14.77;71.52;101407.03;5027949;28;20041;-79
2022/06/07 05:55:10;;;;;;;1.85;0.73;;;;;;;14.73;71.87;101405.22;5032216;28;20107;-79
2022/06/07 05:57:40;;;;;;;4.50;0.73;;;;;;;14.66;72.49;101396.38;5021985;28;20049;-79
2022/06/07 06:00:10;;;;;;;1.75;0.70;;;;;;;14.64;71.81;101397.19;5023474;28;20507;-78
2022/06/07 06:02:38;;;;;;;1.30;0.50;;;;;;;14.62;72.16;101404.97;5021578;28;20054;-78
2022/06/07 06:05:07;;;;;;;1.75;0.60;;;;;;;14.61;72.84;101400.59;5028538;28;20049;-78
2022/06/07 06:07:36;;;;;;;1.27;0.55;;;;;;;14.59;72.09;101396.19;5025840;28;20479;-78
2022/06/07 06:10:22;;;;;;;3.88;1.15;;;;;;;14.55;72.32;101389.16;5025500;28;20057;-78
2022/06/07 06:12:52;;;;;;;0.80;0.65;;;;;;;14.51;71.94;101403.78;5025231;28;20038;-77
2022/06/07 06:15:21;;;;;;;2.08;0.93;;;;;;;14.45;72.81;101394.13;5022185;28;20488;-78
2022/06/07 06:17:50;;;;;;;1.23;0.50;;;;;;;14.39;71.95;101396.56;5014433;28;20057;-78
2022/06/07 06:20:19;;;;;;;1.38;0.60;;;;;;;14.33;72.54;101406.81;5020129;28;20053;-78
2022/06/07 06:22:48;;;;;;;0.98;0.30;;;;;;;14.30;72.63;101404.16;5015616;28;20044;-78
2022/06/07 06:25:17;;;;;;;0.43;0.40;;;;;;;14.27;72.40;101417.09;5025222;28;20512;-78
2022/06/07 06:27:45;;;;;;;0.88;0.52;;;;;;;14.24;73.14;101411.81;5019559;28;20050;-79
2022/06/07 06:30:16;;;;;;;2.80;0.60;;;;;;;14.21;73.67;101416.94;5018303;28;20053;-79
2022/06/07 06:32:45;;;;;;;2.00;0.63;;;;;;;14.16;73.32;101422.03;5018576;28;20050;-80
2022/06/07 06:35:13;;;;;;;1.02;0.57;;;;;;;14.12;73.83;101421.91;5024685;28;20077;-80
2022/06/07 06:37:42;;;;;;;1.67;0.43;;;;;;;14.11;74.64;101420.13;5022998;28;20057;-80
2022/06/07 06:40:12;;;;;;;0.70;0.40;;;;;;;14.08;76.05;101407.94;5031537;28;20041;-80
2022/06/07 06:42:40;;;;;;;1.48;0.68;;;;;;;14.04;76.55;101395.69;5022071;28;20100;-80
2022/06/07 06:45:09;;;;;;;0.50;0.40;;;;;;;13.95;78.46;101391.16;5017631;28;20049;-80
2022/06/07 06:47:40;;;;;;;1.90;0.70;;;;;;;13.85;77.61;101403.88;5016113;28;20054;-80
2022/06/07 06:50:09;;;;;;;0.95;0.30;;;;;;;13.79;77.15;101399.41;5019489;28;20045;-80
2022/06/07 06:52:38;;;;;;;2.25;0.90;;;;;;;13.76;77.50;101407.97;5017193;28;20053;-80
2022/06/07 06:55:07;;;;;;;2.05;0.50;;;;;;;13.70;77.48;101409.53;5023532;28;20060;-79
2022/06/07 06:57:36;;;;;;;3.15;0.65;;;;;;;13.64;78.43;101411.97;5032107;28;20049;-80
2022/06/07 07:00:05;;;;;;;2.60;0.50;;;;;;;13.58;78.15;101423.06;5018367;28;20041;-80
2022/06/07 07:02:34;;;;;;;2.50;0.60;;;;;;;13.56;78.68;101427.34;5024970;28;20047;-80
2022/06/07 07:05:04;;;;;;;1.20;0.50;;;;;;;13.49;79.57;101426.31;5023612;28;20061;-81
2022/06/07 07:07:33;;;;;;;1.58;0.50;;;;;;;13.45;79.36;101424.47;5027934;28;20050;-81
2022/06/07 07:10:02;;;;;;;1.75;0.93;;;;;;;13.41;80.30;101433.00;5031594;28;20077;-80
2022/06/07 07:12:32;;;;;;;0.70;0.60;;;;;;;13.41;79.70;101433.00;5029172;28;20069;-79
2022/06/07 07:15:01;;;;;;;1.30;0.60;;;;;;;13.43;78.80;101435.66;5026452;28;20530;-80
2022/06/07 07:17:30;;;;;;;1.27;0.68;;;;;;;13.41;78.57;101428.69;5029547;28;20447;-80
2022/06/07 07:19:59;;;;;;;1.45;0.50;;;;;;;13.41;78.66;101428.69;5021270;28;20049;-80
2022/06/07 07:22:29;;;;;;;2.08;0.80;;;;;;;13.45;79.12;101421.88;5029466;28;20053;-80
2022/06/07 07:24:57;;;;;;;1.02;0.60;;;;;;;13.45;78.95;101408.88;5021669;28;20053;-80
2022/06/07 07:27:26;;;;;;;0.80;0.60;;;;;;;13.49;79.39;101415.91;5030304;28;20049;-80
2022/06/07 07:29:55;;;;;;;1.20;0.60;;;;;;;13.51;79.15;101401.22;5017254;28;20042;-79
2022/06/07 07:32:24;;;;;;;2.00;1.00;;;;;;;13.52;80.13;101410.78;5020588;28;20061;-80
2022/06/07 07:34:53;;;;;;;1.55;0.55;;;;;;;13.54;80.35;101403.03;5028263;28;20538;-80
2022/06/07 07:37:21;;;;;;;2.00;0.65;;;;;;;13.52;80.16;101391.72;5031909;28;20060;-80
2022/06/07 07:39:52;;;;;;;0.95;0.50;;;;;;;13.47;79.01;101378.59;5030395;28;20483;-80
2022/06/07 07:42:20;;;;;;;1.88;0.60;;;;;;;13.46;79.18;101376.81;5022573;28;20050;-80
2022/06/07 07:44:49;;;;;;;2.83;0.50;;;;;;;13.42;79.71;101372.38;5015427;28;20050;-81
2022/06/07 07:47:17;;;;;;;0.93;0.60;;;;;;;13.40;79.88;101368.88;5034013;28;20373;-80
2022/06/07 07:49:46;;;;;;;0.50;0.47;;;;;;;13.39;79.48;101367.09;5018862;28;20045;-80
2022/06/07 07:52:18;;;;;;;6.90;0.70;;;;;;;13.35;79.58;101365.25;5025198;28;20042;-80
2022/06/07 07:54:46;;;;;;;;;;;;;;;13.32;80.03;101357.38;5018657;28;20515;-80
2022/06/07 07:57:16;;;;;;;1.30;0.70;;;;;;;13.26;79.13;101355.44;5021576;28;19921;-81
2022/06/07 07:59:45;;;;;;;2.03;0.40;;;;;;;13.20;80.32;101361.34;5033615;28;20096;-81
2022/06/07 08:02:18;;;;;;;1.33;0.50;;;;;;;13.15;80.82;101357.75;5029208;28;20124;-81
2022/06/07 08:04:53;;;;;;;2.88;0.60;;;;;;;13.12;81.56;101355.03;5027260;28;20056;-81
2022/06/07 08:07:22;;;;;;;0.80;0.50;;;;;;;13.09;81.33;101352.34;5014807;28;20053;-82
2022/06/07 08:09:50;;;;;;;1.35;0.50;;;;;;;13.07;81.08;101351.44;5014100;28;20053;-82
2022/06/07 08:12:21;;;;;;;0.50;0.35;;;;;;;13.05;81.97;101337.50;5032975;28;20045;-82
2022/06/07 08:14:49;;;;;;;0.85;0.57;;;;;;;13.02;82.75;101342.63;5028779;28;20049;-82
2022/06/07 08:17:18;;;;;;;0.70;0.50;;;;;;;12.97;81.64;101341.63;5029224;28;20513;-82
2022/06/07 08:19:47;;;;;;;1.58;0.43;;;;;;;12.87;82.78;101318.81;5029166;28;20049;-81
2022/06/07 08:22:16;;;;;;;1.42;0.57;;;;;;;12.91;83.80;101341.44;5029330;28;20491;-82
2022/06/07 08:24:44;;;;;;;0.40;0.40;;;;;;;12.90;83.90;101342.28;5030531;28;20470;-81
2022/06/07 08:27:13;;;;;;;0.77;0.47;;;;;;;12.90;82.91;101339.69;5029656;28;20502;-81
2022/06/07 08:29:43;;;;;;;0.47;0.30;;;;;;;12.91;82.33;101337.13;5030767;28;20558;-81
2022/06/07 08:32:12;;;;;;;3.65;0.52;;;;;;;12.91;82.55;101344.91;5028636;28;20441;-81
2022/06/07 08:37:37;;;;;;;2.35;0.60;;;;;;;12.88;82.14;101337.03;5014951;28;20180;-80
2022/06/07 08:40:09;;;;;;;3.80;0.70;;;;;;;12.86;82.49;101336.09;5026757;28;20050;-80
2022/06/07 08:42:40;;;;;;;1.48;0.70;;;;;;;12.86;82.54;101330.03;5023108;28;20056;-79
2022/06/07 08:45:17;;;;;;;2.25;0.55;;;;;;;12.83;82.70;101322.13;5024768;28;20038;-79
2022/06/07 08:47:51;;;;;;;0.85;0.40;;;;;;;12.84;82.90;101319.59;5023350;28;20583;-80
2022/06/07 08:50:23;;;;;;;2.35;0.60;;;;;;;12.83;83.61;101320.44;5028756;28;20049;-80
2022/06/07 08:52:54;;;;;;;0.50;0.47;;;;;;;12.84;84.03;101318.72;5027756;28;20057;-80
2022/06/07 08:55:28;;;;;;;1.10;0.98;;;;;;;12.83;83.40;101314.34;5024109;28;20050;-80
2022/06/07 08:57:59;;;;;;;1.20;0.70;;;;;;;12.82;84.15;101308.28;5029110;28;20111;-80
2022/06/07 09:00:32;;;;;;;5.93;0.73;;;;;;;12.82;83.74;101305.69;5026094;28;20054;-80
2022/06/07 09:03:27;;;;;;;0.63;0.40;;;;;;;12.81;84.21;101297.88;5021843;28;20072;-80
2022/06/07 09:05:57;;;;;;;0.50;0.40;;;;;;;12.81;84.94;101292.69;5027485;28;20041;-80
2022/06/07 09:08:27;;;;;;;0.55;0.50;;;;;;;12.78;84.08;101296.94;5021037;28;20053;-80
2022/06/07 09:13:53;;;;;;;3.03;0.57;;;;;;;12.70;83.47;101306.22;5025093;28;20052;-81
2022/06/07 09:16:23;;;;;;;0.75;0.40;;;;;;;12.65;85.79;101318.19;5029474;28;20059;-81
2022/06/07 09:18:53;;;;;;;2.25;0.55;;;;;;;12.60;86.03;101324.97;5024368;28;20057;-81
2022/06/07 09:21:32;;;;;;;1.17;0.50;;;;;;;12.57;86.52;101311.88;5026998;28;20041;-81
2022/06/07 09:24:01;;;;;;;1.75;0.40;;;;;;;12.60;89.49;101308.47;5026053;28;20045;-80
2022/06/07 09:26:32;;;;;;;0.65;0.32;;;;;;;12.60;89.49;101305.88;5011985;28;20046;-80
2022/06/07 09:29:16;;;;;;;0.40;0.40;;;;;;;12.61;88.89;101313.72;5026860;28;20506;-81
2022/06/07 09:31:48;;;;;;;1.80;0.47;;;;;;;12.62;89.30;101307.72;5019446;28;20522;-80
2022/06/07 09:34:21;;;;;;;1.13;0.50;;;;;;;12.64;89.97;101306.03;5022648;28;20075;-81
2022/06/07 09:36:51;;;;;;;;;;;;;;;12.65;88.91;101299.13;5031263;28;20046;-80
2022/06/07 09:39:27;;;;;;;1.58;0.40;;;;;;;12.62;88.27;101297.34;5029294;28;19957;-81
2022/06/07 09:42:02;;;;;;;5.78;0.68;;;;;;;12.58;87.43;101290.28;5029340;28;20049;-80
2022/06/07 09:44:33;;;;;;;2.70;0.50;;;;;;;12.55;87.02;101292.75;5027787;28;20046;-80
2022/06/07 09:47:06;;;;;;;0.77;0.52;;;;;;;12.51;86.54;101285.75;5014190;28;20053;-80
2022/06/07 09:49:41;;;;;;;3.88;0.88;;;;;;;12.47;87.44;101281.28;5026713;28;20491;-79
2022/06/07 09:52:21;;;;;;;1.17;0.70;;;;;;;12.43;87.53;101287.22;5014367;28;20125;-80
2022/06/07 09:54:52;;;;;;;2.40;0.68;;;;;;;12.38;87.70;101270.63;5015329;28;20519;-80
2022/06/07 09:57:35;;;;;;;2.13;0.70;;;;;;;12.35;87.87;101277.50;5025939;28;20053;-80
2022/06/07 10:00:20;;;;;;;;;;;;;;;12.33;86.81;101279.16;5022046;28;20433;-80
2022/06/07 10:03:18;;;;;;;1.65;0.73;;;;;;;12.30;86.86;101273.88;5018101;28;19921;-80
2022/06/07 10:05:54;;;;;;;0.82;0.50;;;;;;;12.27;86.84;101272.88;5028478;28;20103;-80
2022/06/07 10:08:39;;;;;;;1.33;0.65;;;;;;;12.26;86.73;101281.53;5019774;28;20068;-80
2022/06/07 10:11:17;;;;;;;1.58;0.77;;;;;;;12.19;87.35;101280.44;5019741;28;20079;-79
2022/06/07 10:13:58;;;;;;;1.17;0.90;;;;;;;12.12;86.98;101275.91;5034904;28;20479;-80
2022/06/07 10:16:37;;;;;;;2.53;0.90;;;;;;;12.07;89.35;101280.94;5023906;28;20108;-79
2022/06/07 10:19:24;;;;;;;2.33;0.70;;;;;;;12.03;90.08;101275.63;5029308;28;20116;-79
2022/06/07 10:22:17;;;;;;;0.68;0.40;;;;;;;12.00;91.71;101272.91;5030155;28;20064;-81
2022/06/07 10:24:50;;;;;;;;;;;;;;;11.98;92.79;101274.56;5026503;28;20407;-81
2022/06/07 10:27:22;;;;;;;3.67;0.77;;;;;;;11.93;93.72;101270.13;5030240;28;19929;-81
2022/06/07 10:30:09;;;;;;;1.27;0.63;;;;;;;11.92;94.44;101276.13;5022276;28;20467;-81
2022/06/07 10:32:49;;;;;;;1.30;0.70;;;;;;;11.91;95.33;101266.59;5032466;28;20054;-80
2022/06/07 10:35:30;;;;;;;2.00;0.60;;;;;;;11.88;95.77;101263.91;5028239;28;20049;-81
2022/06/07 10:38:15;;;;;;;1.75;0.80;;;;;;;11.85;96.94;101262.91;5024893;28;20050;-80
2022/06/07 10:41:04;;;;;;;1.35;0.80;;;;;;;11.86;97.20;101255.16;5025759;28;20499;-81
2022/06/07 10:43:43;;;;;;;1.13;0.90;;;;;;;11.85;97.46;101253.41;5024364;28;20563;-81
2022/06/07 10:46:16;;;;;;;4.15;0.63;;;;;;;11.83;96.01;101247.28;5020233;28;20053;-80
2022/06/07 10:48:51;;;;;;;1.42;0.70;;;;;;;11.81;96.05;101243.75;5027275;28;20064;-81
2022/06/07 10:54:18;;;;;;;1.10;0.60;;;;;;;11.77;95.78;101234.09;5027006;28;20056;-81
2022/06/07 10:56:54;;;;;;;4.60;0.63;;;;;;;11.70;94.92;101233.06;5032796;28;20115;-81
2022/06/07 10:59:24;;;;;;;3.45;0.70;;;;;;;11.67;96.14;101222.56;5031202;28;20132;-81
2022/06/07 11:01:57;;;;;;;1.85;0.50;;;;;;;11.63;96.57;101219.81;5014728;28;20053;-80
2022/06/07 11:10:13;;;;;;;1.75;0.55;;;;;;;11.48;100.00;101218.50;5023573;28;20056;-80
2022/06/07 11:12:49;;;;;;;1.05;0.60;;;;;;;11.48;100.00;101215.03;5030631;28;20063;-80
2022/06/07 11:15:32;;;;;;;1.95;0.50;;;;;;;11.46;100.00;101207.19;5032446;28;20060;-80
2022/06/07 11:18:09;;;;;;;3.92;0.55;;;;;;;11.45;100.00;101199.38;5027895;28;20494;-80
2022/06/07 11:20:48;;;;;;;3.42;0.80;;;;;;;11.44;100.00;101197.63;5029312;28;20467;-80
2022/06/07 11:23:29;;;;;;;1.50;0.73;;;;;;;11.40;99.28;101198.34;5020282;28;20512;-80
2022/06/07 11:26:04;;;;;;;5.82;1.23;;;;;;;11.38;98.73;101187.03;5026310;28;20063;-79
2022/06/07 11:28:35;;;;;;;1.50;0.60;;;;;;;11.35;100.00;101181.78;5020577;28;20045;-80
2022/06/07 11:31:23;;;;;;;2.08;0.68;;;;;;;11.32;99.73;101172.19;5030501;28;20124;-80
2022/06/07 11:34:16;;;;;;;1.38;0.60;;;;;;;11.30;99.54;101179.03;5020146;28;20057;-80
2022/06/07 11:36:45;;;;;;;0.80;0.70;;;;;;;11.28;100.00;101180.69;5018038;28;20045;-80
2022/06/07 11:42:45;;;;;;;2.30;0.80;;;;;;;11.23;99.60;101175.34;4737550;27;8959904;-80
2022/06/07 11:45:24;;;;;;;1.23;0.88;;;;;;;11.22;99.36;101170.09;5026102;28;20052;-80
2022/06/07 11:48:17;;;;;;;3.45;0.80;;;;;;;11.20;99.36;101172.66;5026548;28;20077;-81
2022/06/07 11:50:49;;;;;;;;;;;;;;;11.20;99.32;101174.34;5010379;28;20069;-79
2022/06/07 11:53:27;;;;;;;1.55;0.98;;;;;;;11.18;98.53;101170.81;5023778;28;20359;-80
2022/06/07 11:56:14;;;;;;;0.95;0.70;;;;;;;11.16;98.76;101167.34;5027552;28;20041;-80
2022/06/07 11:59:03;;;;;;;1.25;0.70;;;;;;;11.14;98.55;101162.09;5022811;28;20049;-80
2022/06/07 12:01:38;;;;;;;1.40;0.90;;;;;;;11.11;98.56;101154.22;5024358;28;20050;-81
2022/06/07 12:04:36;;;;;;;1.00;0.60;;;;;;;11.08;98.45;101149.81;5015016;28;20046;-82
2022/06/07 12:07:15;;;;;;;2.70;0.90;;;;;;;11.04;98.23;101139.28;4991751;28;20645;-82
2022/06/07 12:09:50;;;;;;;1.90;0.70;;;;;;;10.99;97.37;101136.53;4995402;28;20053;-82
2022/06/07 12:12:28;;;;;;;1.15;0.80;;;;;;;10.95;97.27;101132.13;4994388;28;20131;-82
2022/06/07 12:15:05;;;;;;;3.90;0.80;;;;;;;10.92;98.63;101132.00;4997027;28;20104;-83
2022/06/07 12:17:34;;;;;;;3.17;1.02;;;;;;;10.88;98.63;101124.94;4990988;28;20046;-82